createdAt,value
2019-01-30T00:00:28.752Z,94.70
2019-01-30T00:03:32.412Z,94.60
2019-01-30T00:06:36.103Z,94.40
2019-01-30T00:09:39.787Z,94.40
2019-01-30T00:12:43.355Z,94.30
2019-01-30T00:15:56.022Z,94.40
2019-01-30T00:18:52.222Z,93.90
2019-01-30T00:21:55.927Z,94.10
2019-01-30T00:24:59.632Z,94.10
2019-01-30T00:28:03.303Z,94.20
2019-01-30T00:31:06.992Z,94.40
2019-01-30T00:34:10.655Z,94.20
2019-01-30T00:37:14.327Z,94.20
2019-01-30T00:40:19.842Z,94.20
2019-01-30T00:43:23.560Z,94.30
2019-01-30T00:46:27.198Z,94.60
2019-01-30T00:49:30.863Z,93.90
2019-01-30T00:52:34.528Z,93.80
2019-01-30T00:55:38.253Z,93.60
2019-01-30T00:58:41.914Z,93.70
2019-01-30T01:01:45.607Z,93.30
2019-01-30T01:04:49.246Z,93.00
2019-01-30T01:07:52.928Z,92.50
2019-01-30T01:10:56.598Z,92.20
2019-01-30T01:14:00.193Z,92.10
2019-01-30T01:17:03.873Z,92.40
2019-01-30T01:20:10.555Z,91.90
2019-01-30T01:23:14.205Z,91.90
2019-01-30T01:26:17.823Z,92.00
2019-01-30T01:29:21.475Z,92.20
2019-01-30T01:32:25.130Z,92.50
2019-01-30T01:35:28.783Z,92.40
2019-01-30T01:38:32.516Z,92.30
2019-01-30T01:41:36.100Z,92.60
2019-01-30T01:44:39.766Z,92.20
2019-01-30T01:47:43.338Z,92.30
2019-01-30T01:50:48.583Z,92.50
2019-01-30T01:53:52.234Z,92.90
2019-01-30T01:56:55.933Z,92.40
2019-01-30T01:59:59.592Z,92.40
2019-01-30T02:03:03.200Z,92.60
2019-01-30T02:06:06.853Z,92.90
2019-01-30T02:09:10.575Z,93.10
2019-01-30T02:12:14.213Z,92.80
2019-01-30T02:15:19.683Z,92.00
2019-01-30T02:18:23.344Z,92.30
2019-01-30T02:21:27.048Z,92.30
2019-01-30T02:24:30.715Z,92.50
2019-01-30T02:27:34.416Z,92.40
2019-01-30T02:30:47.043Z,93.10
2019-01-30T02:33:43.375Z,92.70
2019-01-30T02:36:56.193Z,92.70
2019-01-30T02:39:59.853Z,92.20
2019-01-30T02:43:03.444Z,92.70
2019-01-30T02:46:07.178Z,92.70
2019-01-30T02:49:10.813Z,93.40
2019-01-30T02:52:14.443Z,92.70
2019-01-30T02:55:19.018Z,93.10
2019-01-30T02:58:22.678Z,92.80
2019-01-30T03:01:26.353Z,93.20
2019-01-30T03:04:30.015Z,93.00
2019-01-30T03:07:33.633Z,93.10
2019-01-30T03:10:38.694Z,93.00
2019-01-30T03:13:42.355Z,92.90
2019-01-30T03:16:46.059Z,92.90
2019-01-30T03:19:49.724Z,93.90
2019-01-30T03:22:54.882Z,93.60
2019-01-30T03:25:58.535Z,94.00
2019-01-30T03:29:02.206Z,94.70
2019-01-30T03:32:05.891Z,94.90
2019-01-30T03:35:10.073Z,94.90
2019-01-30T03:38:13.697Z,95.50
2019-01-30T03:41:17.413Z,95.60
2019-01-30T03:44:21.074Z,95.40
2019-01-30T03:47:24.843Z,95.90
2019-01-30T03:50:28.534Z,95.80
2019-01-30T03:53:32.234Z,96.10
2019-01-30T03:56:35.823Z,95.80
2019-01-30T03:59:39.515Z,96.40
2019-01-30T04:02:43.135Z,96.20
2019-01-30T04:05:46.825Z,96.10
2019-01-30T04:08:50.468Z,96.20
2019-01-30T04:11:54.082Z,96.10
2019-01-30T04:14:57.654Z,96.20
2019-01-30T04:18:01.350Z,95.70
2019-01-30T04:21:04.993Z,95.90
2019-01-30T04:24:08.692Z,96.10
2019-01-30T04:27:12.275Z,96.30
2019-01-30T04:30:24.555Z,96.30
2019-01-30T04:33:28.223Z,96.30
2019-01-30T04:36:32.398Z,96.30
2019-01-30T04:39:36.086Z,96.10
2019-01-30T04:42:39.751Z,95.90
2019-01-30T04:45:44.622Z,95.90
2019-01-30T04:48:48.270Z,96.00
2019-01-30T04:51:51.969Z,95.80
2019-01-30T04:54:55.634Z,95.90
2019-01-30T04:57:59.311Z,95.80
2019-01-30T05:01:03.070Z,95.90
2019-01-30T05:04:06.814Z,96.10
2019-01-30T05:07:10.472Z,95.90
2019-01-30T05:10:14.381Z,95.80
2019-01-30T05:13:18.023Z,95.80
2019-01-30T05:16:21.703Z,95.90
2019-01-30T05:19:25.303Z,95.90
2019-01-30T05:22:28.986Z,96.10
2019-01-30T05:25:32.606Z,96.20
2019-01-30T05:28:36.288Z,96.50
2019-01-30T05:31:39.943Z,96.60
2019-01-30T05:34:43.652Z,96.80
2019-01-30T05:37:47.298Z,97.30
2019-01-30T05:40:51.017Z,97.00
2019-01-30T05:43:54.576Z,97.00
2019-01-30T05:46:58.284Z,97.20
2019-01-30T05:50:01.935Z,97.20
2019-01-30T05:53:05.895Z,97.30
2019-01-30T05:56:09.520Z,97.40
2019-01-30T05:59:13.219Z,97.50
2019-01-30T06:02:16.856Z,97.70
2019-01-30T06:05:20.624Z,97.90
2019-01-30T06:08:25.854Z,97.90
2019-01-30T06:11:29.595Z,97.90
2019-01-30T06:14:33.225Z,98.10
2019-01-30T06:17:36.869Z,98.30
2019-01-30T06:20:40.519Z,98.30
2019-01-30T06:23:44.270Z,98.50
2019-01-30T06:26:47.887Z,98.40
2019-01-30T06:29:51.563Z,98.30
2019-01-30T06:32:55.224Z,98.20
2019-01-30T06:35:58.904Z,98.20
2019-01-30T06:39:02.554Z,98.20
2019-01-30T06:42:06.242Z,98.30
2019-01-30T06:45:10.884Z,98.20
2019-01-30T06:48:14.592Z,98.30
2019-01-30T06:51:18.252Z,98.30
2019-01-30T06:54:21.933Z,98.40
2019-01-30T06:57:26.825Z,98.10
2019-01-30T07:00:30.515Z,98.10
2019-01-30T07:03:34.163Z,97.50
2019-01-30T07:06:37.788Z,97.80
2019-01-30T07:09:41.504Z,97.90
2019-01-30T07:12:46.758Z,98.10
2019-01-30T07:15:50.480Z,98.00
2019-01-30T07:26:23.362Z,97.50
2019-01-30T07:29:26.965Z,97.50
2019-01-30T07:32:30.655Z,97.20
2019-01-30T07:35:34.453Z,97.00
2019-01-30T07:38:38.230Z,97.40
2019-01-30T07:41:41.899Z,97.50
2019-01-30T07:44:50.686Z,97.10
2019-01-30T07:47:50.919Z,97.10
2019-01-30T07:50:54.564Z,97.00
2019-01-30T07:53:58.134Z,96.70
2019-01-30T07:57:01.813Z,96.80
2019-01-30T08:00:11.496Z,96.90
2019-01-30T08:03:15.162Z,96.50
2019-01-30T08:06:19.676Z,96.20
2019-01-30T08:09:23.367Z,96.20
2019-01-30T08:12:26.978Z,96.40
2019-01-30T08:15:30.632Z,96.00
2019-01-30T08:18:34.522Z,96.10
2019-01-30T08:21:38.217Z,96.20
2019-01-30T08:24:41.862Z,96.30
2019-01-30T08:27:45.978Z,96.20
2019-01-30T08:30:49.890Z,96.10
2019-01-30T08:33:53.737Z,96.20
2019-01-30T08:36:57.510Z,96.50
2019-01-30T08:40:01.119Z,96.90
2019-01-30T08:43:04.784Z,96.70
2019-01-30T08:46:08.383Z,96.70
2019-01-30T08:49:13.204Z,97.70
2019-01-30T08:52:16.965Z,96.70
2019-01-30T08:55:20.563Z,96.20
2019-01-30T08:58:24.158Z,96.30
2019-01-30T09:01:27.834Z,95.90
2019-01-30T09:04:31.413Z,95.90
2019-01-30T09:07:44.063Z,95.90
2019-01-30T09:10:40.401Z,95.90
2019-01-30T09:13:44.043Z,95.70
2019-01-30T09:16:47.690Z,96.30
2019-01-30T09:19:51.352Z,96.20
2019-01-30T09:22:54.955Z,96.20
2019-01-30T09:25:58.629Z,96.30
2019-01-30T09:29:02.307Z,96.10
2019-01-30T09:32:05.964Z,95.70
2019-01-30T09:35:11.430Z,96.30
2019-01-30T09:38:15.134Z,95.70
2019-01-30T09:41:18.775Z,96.20
2019-01-30T09:44:22.432Z,96.10
2019-01-30T09:47:26.082Z,96.00
2019-01-30T09:50:29.815Z,96.10
2019-01-30T09:53:33.454Z,95.70
2019-01-30T09:56:37.048Z,95.50
2019-01-30T09:59:40.585Z,95.60
2019-01-30T10:02:44.292Z,94.90
2019-01-30T10:05:47.948Z,95.00
2019-01-30T10:08:51.578Z,94.60
2019-01-30T10:11:55.202Z,93.00
2019-01-30T10:14:58.892Z,92.00
2019-01-30T10:18:02.564Z,90.60
2019-01-30T10:21:06.253Z,90.50
2019-01-30T10:24:09.852Z,87.70
2019-01-30T10:27:13.525Z,83.70
2019-01-30T10:30:38.495Z,75.80
2019-01-30T10:33:46.469Z,70.50
2019-01-30T10:36:47.464Z,66.40
2019-01-30T10:39:51.040Z,62.70
2019-01-30T10:42:57.291Z,61.90
2019-01-30T10:46:00.276Z,62.30
2019-01-30T10:49:03.912Z,68.40
2019-01-30T10:52:07.693Z,71.60
2019-01-30T10:55:14.756Z,75.30
2019-01-30T10:58:20.066Z,79.60
2019-01-30T11:01:23.745Z,85.30
2019-01-30T11:04:27.461Z,86.80
2019-01-30T11:07:31.335Z,87.70
2019-01-30T11:10:35.042Z,90.20
2019-01-30T11:13:38.684Z,90.80
2019-01-30T11:16:42.457Z,91.60
2019-01-30T11:19:46.376Z,92.20
2019-01-30T11:22:50.072Z,92.10
2019-01-30T11:25:53.735Z,92.70
2019-01-30T11:28:57.405Z,93.00
2019-01-30T11:32:01.022Z,93.10
2019-01-30T11:35:05.752Z,92.70
2019-01-30T11:38:09.448Z,93.40
2019-01-30T11:41:13.093Z,93.30
2019-01-30T11:44:16.797Z,93.60
2019-01-30T11:47:20.552Z,93.70
2019-01-30T11:50:24.313Z,93.70
2019-01-30T11:53:27.892Z,94.00
2019-01-30T11:56:31.563Z,93.70
2019-01-30T11:59:35.226Z,93.30
2019-01-30T12:02:47.751Z,92.70
2019-01-30T12:05:44.685Z,93.10
2019-01-30T12:08:48.381Z,92.40
2019-01-30T12:11:52.127Z,92.20
2019-01-30T12:14:56.222Z,92.20
2019-01-30T12:18:00.166Z,93.20
2019-01-30T12:21:05.927Z,91.90
2019-01-30T12:24:09.573Z,92.20
2019-01-30T12:27:13.257Z,92.00
2019-01-30T12:30:22.017Z,91.90
2019-01-30T12:33:25.723Z,91.90
2019-01-30T12:36:29.373Z,90.70
2019-01-30T12:39:33.089Z,91.10
2019-01-30T12:42:36.733Z,90.20
2019-01-30T12:45:40.436Z,90.20
2019-01-30T12:48:45.498Z,90.00
2019-01-30T12:51:49.162Z,91.70
2019-01-30T12:54:52.802Z,92.00
2019-01-30T12:57:56.508Z,92.60
2019-01-30T13:01:00.108Z,92.00
2019-01-30T13:04:03.770Z,92.00
2019-01-30T13:07:07.440Z,92.20
2019-01-30T13:10:11.092Z,92.00
2019-01-30T13:13:14.782Z,92.80
2019-01-30T13:16:18.487Z,91.90
2019-01-30T13:19:23.025Z,91.40
2019-01-30T13:22:26.682Z,92.20
2019-01-30T13:25:31.852Z,92.60
2019-01-30T13:28:35.473Z,92.40
2019-01-30T13:31:39.165Z,92.40
2019-01-30T13:34:48.781Z,93.00
2019-01-30T13:37:48.165Z,92.80
2019-01-30T13:40:51.783Z,93.20
2019-01-30T13:43:55.496Z,92.80
2019-01-30T13:46:59.123Z,92.30
2019-01-30T13:50:02.835Z,92.90
2019-01-30T13:53:06.540Z,93.40
2019-01-30T13:56:10.254Z,93.30
2019-01-30T13:59:13.921Z,93.30
2019-01-30T14:02:17.824Z,93.50
2019-01-30T14:05:21.415Z,93.80
2019-01-30T14:08:25.201Z,94.20
2019-01-30T14:11:28.812Z,93.80
2019-01-30T14:14:32.517Z,94.20
2019-01-30T14:17:36.108Z,94.10
2019-01-30T14:20:40.024Z,94.20
2019-01-30T14:23:43.724Z,94.00
2019-01-30T14:26:47.391Z,94.10
2019-01-30T14:29:58.140Z,94.40
2019-01-30T14:32:56.418Z,94.50
2019-01-30T14:36:00.100Z,94.60
2019-01-30T14:39:05.163Z,94.90
2019-01-30T14:42:08.792Z,96.00
2019-01-30T14:45:19.583Z,95.70
2019-01-30T14:48:23.258Z,95.90
2019-01-30T14:51:26.922Z,96.10
2019-01-30T14:54:30.524Z,95.90
2019-01-30T14:57:34.308Z,96.20
2019-01-30T15:00:37.947Z,95.90
2019-01-30T15:03:41.647Z,96.30
2019-01-30T15:06:45.334Z,96.10
2019-01-30T15:09:49.001Z,96.20
2019-01-30T15:12:52.669Z,96.70
2019-01-30T15:15:56.353Z,96.30
2019-01-30T15:19:00.389Z,96.90
2019-01-30T15:22:04.031Z,97.00
2019-01-30T15:25:10.738Z,97.00
2019-01-30T15:28:14.461Z,97.30
2019-01-30T15:31:18.083Z,96.70
2019-01-30T15:34:21.763Z,96.80
2019-01-30T15:37:25.469Z,96.70
2019-01-30T15:40:32.074Z,97.10
2019-01-30T15:43:35.783Z,97.30
2019-01-30T15:46:39.463Z,97.80
2019-01-30T15:49:43.148Z,98.20
2019-01-30T15:52:46.781Z,98.60
2019-01-30T15:55:50.462Z,99.90
2019-01-30T15:58:54.118Z,99.90
2019-01-30T16:01:57.783Z,99.90
2019-01-30T16:05:01.498Z,99.90
2019-01-30T16:08:05.757Z,99.90
2019-01-30T16:11:09.550Z,99.90
2019-01-30T16:14:13.566Z,99.90
2019-01-30T16:17:17.346Z,99.90
2019-01-30T16:20:21.093Z,99.90
2019-01-30T16:23:25.356Z,99.90
2019-01-30T16:26:30.193Z,99.90
2019-01-30T16:29:33.994Z,99.90
2019-01-30T16:32:37.677Z,99.90
2019-01-30T16:35:41.355Z,99.90
2019-01-30T16:38:45.335Z,99.90
2019-01-30T16:41:49.174Z,99.90
2019-01-30T16:44:52.924Z,99.90
2019-01-30T16:47:56.895Z,99.90
2019-01-30T16:51:00.728Z,99.90
2019-01-30T16:54:04.407Z,99.90
2019-01-30T16:57:08.828Z,99.90
2019-01-30T17:00:21.114Z,99.90
2019-01-30T17:03:24.952Z,99.90
2019-01-30T17:06:29.533Z,99.90
2019-01-30T17:09:33.228Z,99.90
2019-01-30T17:12:37.607Z,99.90
2019-01-30T17:15:42.004Z,99.90
2019-01-30T17:18:45.800Z,99.90
2019-01-30T17:21:49.564Z,99.90
2019-01-30T17:24:53.578Z,99.90
2019-01-30T17:27:57.303Z,99.90
2019-01-30T17:31:02.749Z,99.90
2019-01-30T17:34:06.483Z,99.90
2019-01-30T17:37:10.883Z,99.90
2019-01-30T17:40:22.871Z,99.90
2019-01-30T17:43:29.503Z,99.90
2019-01-30T17:46:35.439Z,99.90
2019-01-30T17:49:40.666Z,99.90
2019-01-30T17:52:44.415Z,99.90
2019-01-30T17:55:48.262Z,99.90
2019-01-30T17:58:52.015Z,99.90
2019-01-30T18:01:55.785Z,99.90
2019-01-30T18:04:59.511Z,99.90
2019-01-30T18:08:04.805Z,99.90
2019-01-30T18:11:08.560Z,99.90
2019-01-30T18:14:12.245Z,99.90
2019-01-30T18:17:15.977Z,99.90
2019-01-30T18:20:23.304Z,99.90
2019-01-30T18:23:26.973Z,99.90
2019-01-30T18:26:30.720Z,99.90
2019-01-30T18:29:34.520Z,99.90
2019-01-30T18:32:38.780Z,99.90
2019-01-30T18:35:43.464Z,99.90
2019-01-30T18:38:47.308Z,99.90
2019-01-30T18:41:50.935Z,99.90
2019-01-30T18:44:54.659Z,99.90
2019-01-30T18:47:58.549Z,99.90
2019-01-30T18:51:02.816Z,99.90
2019-01-30T18:54:06.508Z,99.90
2019-01-30T18:57:10.264Z,99.90
2019-01-30T19:00:26.027Z,99.90
2019-01-30T19:03:29.775Z,99.90
2019-01-30T19:06:34.692Z,99.90
2019-01-30T19:09:40.566Z,99.90
2019-01-30T19:12:45.423Z,99.90
2019-01-30T19:15:49.201Z,99.90
2019-01-30T19:18:52.911Z,99.90
2019-01-30T19:21:56.784Z,99.90
2019-01-30T19:25:00.478Z,99.90
2019-01-30T19:28:04.329Z,99.90
2019-01-30T19:31:08.016Z,99.90
2019-01-30T19:34:11.764Z,99.90
2019-01-30T19:40:45.218Z,99.90
2019-01-30T19:43:48.960Z,99.90
2019-01-30T19:46:52.703Z,99.90
2019-01-30T19:49:56.489Z,99.90
2019-01-30T19:53:01.454Z,99.90
2019-01-30T19:56:05.873Z,99.90
2019-01-30T19:59:17.360Z,99.90
2019-01-30T20:02:15.019Z,99.90
2019-01-30T20:05:18.675Z,99.90
2019-01-30T20:08:22.450Z,99.90
2019-01-30T20:11:26.074Z,99.90
2019-01-30T20:14:32.361Z,99.90
2019-01-30T20:17:36.081Z,99.90
2019-01-30T20:20:39.842Z,99.90
2019-01-30T20:23:43.453Z,99.90
2019-01-30T20:26:47.160Z,99.90
2019-01-30T20:29:50.821Z,99.90
2019-01-30T20:32:54.615Z,99.40
2019-01-30T20:35:58.335Z,99.50
2019-01-30T20:39:02.001Z,99.70
2019-01-30T20:42:05.820Z,99.90
2019-01-30T20:45:12.182Z,99.90
2019-01-30T20:48:15.905Z,99.90
2019-01-30T20:51:19.558Z,99.90
2019-01-30T20:54:23.257Z,99.90
2019-01-30T20:57:27.276Z,99.90
2019-01-30T21:00:36.126Z,99.90
2019-01-30T21:03:39.888Z,99.90
2019-01-30T21:06:43.527Z,99.90
2019-01-30T21:09:47.241Z,99.90
2019-01-30T21:12:50.906Z,99.90
2019-01-30T21:15:54.582Z,99.90
2019-01-30T21:18:58.262Z,99.90
2019-01-30T21:22:01.998Z,99.90
2019-01-30T21:25:08.759Z,99.90
2019-01-30T21:28:12.496Z,99.90
2019-01-30T21:31:16.176Z,99.90
2019-01-30T21:34:21.262Z,99.90
2019-01-30T21:37:24.918Z,99.90
2019-01-30T21:40:31.125Z,99.90
2019-01-30T21:43:35.094Z,99.90
2019-01-30T21:46:38.802Z,99.90
2019-01-30T21:49:42.425Z,99.90
2019-01-30T21:52:46.161Z,99.90
2019-01-30T21:55:49.826Z,99.90
2019-01-30T21:58:53.556Z,99.90
2019-01-30T22:02:07.724Z,99.90
2019-01-30T22:05:02.567Z,99.90
2019-01-30T22:08:06.511Z,99.90
2019-01-30T22:11:10.200Z,99.90
2019-01-30T22:14:14.035Z,99.90
2019-01-30T22:17:17.709Z,99.90
2019-01-30T22:20:24.724Z,99.90
2019-01-30T22:23:28.396Z,99.90
2019-01-30T22:26:32.105Z,99.90
2019-01-30T22:29:35.830Z,99.90
2019-01-30T22:32:39.574Z,99.90
2019-01-30T22:35:43.287Z,99.90
2019-01-30T22:38:46.996Z,99.90
2019-01-30T22:41:51.297Z,99.90
2019-01-30T22:44:54.927Z,99.90
2019-01-30T22:48:02.685Z,99.90
2019-01-30T22:51:06.400Z,99.90
2019-01-30T22:54:10.088Z,99.90
2019-01-30T22:57:13.743Z,99.90
2019-01-30T23:00:57.840Z,99.90
2019-01-30T23:04:07.144Z,99.90
2019-01-30T23:07:15.010Z,99.90
2019-01-30T23:10:25.184Z,99.90
2019-01-30T23:13:41.102Z,99.90
2019-01-30T23:16:56.711Z,99.90
2019-01-30T23:20:04.531Z,99.90
2019-01-30T23:23:23.265Z,99.90
2019-01-30T23:26:30.706Z,99.90
2019-01-30T23:30:00.064Z,99.90
2019-01-30T23:33:25.070Z,99.90
2019-01-30T23:36:46.720Z,99.90
2019-01-30T23:39:56.280Z,99.90
2019-01-30T23:43:14.866Z,99.90
2019-01-30T23:46:47.037Z,99.90
2019-01-30T23:50:10.263Z,99.90
2019-01-30T23:53:33.504Z,99.90
2019-01-30T23:56:58.592Z,99.90
